Time;durP1;ratioP1;P1;durP2;ratioP2;P2;SDS_P1;SDS_P2;PMS_P1;PMS_P2;Temp;Humidity;BMP_temperature;BMP_pressure;BME280_temperature;BME280_humidity;BME280_pressure;Samples;Min_cycle;Max_cycle;Signal;HPM_P1;HPM_P2
2021/05/03 00:00:01;;;;;;;1999.90;999.90;;;15.10;83.80;;;;;;5113381;28;20178;-42
2021/05/03 00:02:28;;;;;;;1999.90;999.90;;;15.10;84.70;;;;;;5113435;28;20609;-42
2021/05/03 00:04:55;;;;;;;1999.90;999.90;;;15.10;85.30;;;;;;5113338;28;20182;-43
2021/05/03 00:07:22;;;;;;;1999.90;999.90;;;15.10;84.80;;;;;;5113302;28;20281;-42
2021/05/03 00:09:48;;;;;;;1999.90;999.90;;;15.00;86.00;;;;;;5113342;28;20170;-43
2021/05/03 00:12:15;;;;;;;1999.90;999.90;;;14.90;86.10;;;;;;5113408;28;20195;-43
2021/05/03 00:14:42;;;;;;;1999.90;999.90;;;14.90;86.60;;;;;;5113280;28;20191;-42
2021/05/03 00:17:09;;;;;;;1999.90;999.90;;;14.90;85.70;;;;;;5113377;28;20561;-42
2021/05/03 00:19:36;;;;;;;1999.90;999.90;;;14.90;85.70;;;;;;5113269;28;20221;-43
2021/05/03 00:22:03;;;;;;;1999.90;999.90;;;14.90;85.10;;;;;;5113264;28;20175;-43
2021/05/03 00:24:30;;;;;;;1999.90;999.90;;;14.90;85.70;;;;;;5113315;28;20170;-42
2021/05/03 00:26:57;;;;;;;1999.90;999.90;;;14.80;87.20;;;;;;5113213;28;20179;-42
2021/05/03 00:29:24;;;;;;;1999.90;999.90;;;14.90;86.40;;;;;;5113221;28;20194;-44
2021/05/03 00:31:51;;;;;;;1999.90;999.90;;;14.80;86.20;;;;;;5113141;28;20159;-42
2021/05/03 00:34:18;;;;;;;1999.90;999.90;;;14.80;86.50;;;;;;5113098;28;20191;-42
2021/05/03 00:36:44;;;;;;;1999.90;999.90;;;14.80;86.70;;;;;;5113166;28;20163;-42
2021/05/03 00:39:11;;;;;;;1999.90;999.90;;;14.90;86.00;;;;;;5112995;28;20567;-42
2021/05/03 00:41:38;;;;;;;1999.90;999.90;;;14.90;85.40;;;;;;5113046;28;20170;-42
2021/05/03 00:44:05;;;;;;;1999.90;999.90;;;14.90;86.20;;;;;;5116631;28;20167;-42
2021/05/03 00:46:32;;;;;;;1999.90;999.90;;;14.90;86.10;;;;;;5117278;28;20557;-42
2021/05/03 00:48:59;;;;;;;1999.90;999.90;;;14.90;86.30;;;;;;5117276;28;20169;-42
2021/05/03 00:51:26;;;;;;;1999.90;999.90;;;14.80;86.90;;;;;;5117102;28;20166;-42
2021/05/03 00:53:53;;;;;;;1999.90;999.90;;;14.80;87.20;;;;;;5116787;28;20238;-42
2021/05/03 00:56:20;;;;;;;1999.90;999.90;;;14.80;87.10;;;;;;5116986;28;20167;-48
2021/05/03 00:58:47;;;;;;;1999.90;999.90;;;14.60;87.70;;;;;;5116908;28;20691;-43
2021/05/03 01:01:14;;;;;;;1999.90;999.90;;;14.50;88.30;;;;;;5116846;28;20170;-42
2021/05/03 01:03:41;;;;;;;1999.90;999.90;;;14.50;87.70;;;;;;5116732;28;20159;-42
2021/05/03 01:06:08;;;;;;;1999.90;999.90;;;14.50;87.80;;;;;;5116646;28;20563;-42
2021/05/03 01:08:34;;;;;;;1999.90;999.90;;;14.50;88.10;;;;;;5116610;28;20175;-42
2021/05/03 01:11:01;;;;;;;1999.90;999.90;;;14.50;88.10;;;;;;5116656;28;20178;-42
2021/05/03 01:13:28;;;;;;;1999.90;999.90;;;14.50;89.30;;;;;;5116470;28;20168;-42
2021/05/03 01:15:55;;;;;;;1999.90;999.90;;;14.40;89.40;;;;;;5116535;28;20526;-51
2021/05/03 01:18:25;;;;;;;1999.90;999.90;;;14.50;89.80;;;;;;5116436;28;20167;-42
2021/05/03 01:20:56;;;;;;;1999.90;999.90;;;14.40;89.90;;;;;;5116425;28;20163;-42
2021/05/03 01:23:23;;;;;;;1999.90;999.90;;;14.40;90.00;;;;;;5116534;28;20204;-42
2021/05/03 01:25:51;;;;;;;1999.90;999.90;;;14.40;90.00;;;;;;5116361;28;20252;-42
2021/05/03 01:28:18;;;;;;;1999.90;999.90;;;14.40;90.00;;;;;;5116160;28;20195;-42
2021/05/03 01:30:46;;;;;;;1999.90;999.90;;;14.30;90.30;;;;;;5116226;28;20307;-43
2021/05/03 01:33:15;;;;;;;1999.90;999.90;;;14.30;90.50;;;;;;5116149;28;20639;-43
2021/05/03 01:35:44;;;;;;;1999.90;999.90;;;14.30;90.70;;;;;;5116055;28;20209;-43
2021/05/03 01:38:11;;;;;;;1999.90;999.90;;;14.20;90.80;;;;;;5116109;28;20183;-42
2021/05/03 01:40:41;;;;;;;1999.90;999.90;;;14.20;90.80;;;;;;5116016;28;20625;-43
2021/05/03 01:43:22;;;;;;;1999.90;999.90;;;14.20;90.90;;;;;;5116075;28;20515;-43
2021/05/03 01:45:52;;;;;;;1999.90;999.90;;;14.20;90.90;;;;;;5115839;28;20722;-43
2021/05/03 01:48:29;;;;;;;1999.90;999.90;;;14.10;91.00;;;;;;5115869;28;20167;-42
2021/05/03 01:50:58;;;;;;;1999.90;999.90;;;14.10;90.60;;;;;;5115867;28;20164;-43
2021/05/03 01:53:26;;;;;;;1999.90;999.90;;;14.20;90.50;;;;;;5115411;28;20677;-43
2021/05/03 01:55:55;;;;;;;1999.90;999.90;;;14.10;90.70;;;;;;5115014;28;20167;-42
2021/05/03 01:58:23;;;;;;;1999.90;999.90;;;14.00;91.20;;;;;;5115528;28;20174;-42
2021/05/03 02:00:51;;;;;;;1999.90;999.90;;;14.00;91.10;;;;;;5115632;28;20163;-42
2021/05/03 02:03:22;;;;;;;1999.90;999.90;;;14.00;91.00;;;;;;5115496;28;20174;-43
2021/05/03 02:05:50;;;;;;;1999.90;999.90;;;14.00;91.10;;;;;;5115461;28;20159;-42
2021/05/03 02:08:17;;;;;;;1999.90;999.90;;;13.90;91.50;;;;;;5115326;28;20186;-42
2021/05/03 02:10:44;;;;;;;1999.90;999.90;;;13.90;91.20;;;;;;5115547;28;20171;-43
2021/05/03 02:13:12;;;;;;;1999.90;999.90;;;13.90;90.80;;;;;;5115543;28;20169;-42
2021/05/03 02:15:39;;;;;;;1999.90;999.90;;;14.00;91.10;;;;;;5115478;28;20547;-42
2021/05/03 02:18:06;;;;;;;1999.90;999.90;;;13.90;91.50;;;;;;5115510;28;20198;-43
2021/05/03 02:20:34;;;;;;;1999.90;999.90;;;13.90;92.00;;;;;;5115201;28;20178;-42
2021/05/03 02:23:01;;;;;;;1999.90;999.90;;;13.80;91.80;;;;;;5115251;28;20167;-42
2021/05/03 02:25:28;;;;;;;1999.90;999.90;;;13.90;91.60;;;;;;5115237;28;20166;-42
2021/05/03 02:27:55;;;;;;;1999.90;999.90;;;13.80;91.60;;;;;;5115204;28;20167;-43
2021/05/03 02:30:22;;;;;;;1999.90;999.90;;;13.80;91.70;;;;;;5115150;28;20177;-42
2021/05/03 02:32:49;;;;;;;1999.90;999.90;;;13.80;91.80;;;;;;5114870;28;20179;-42
2021/05/03 02:35:22;;;;;;;1999.90;999.90;;;13.80;92.00;;;;;;5115009;28;20790;-42
2021/05/03 02:37:56;;;;;;;1999.90;999.90;;;13.80;91.90;;;;;;5114994;28;20550;-44
2021/05/03 02:40:26;;;;;;;1999.90;999.90;;;13.80;91.90;;;;;;5114937;28;20163;-43
2021/05/03 02:42:56;;;;;;;1999.90;999.90;;;13.80;91.90;;;;;;5114882;28;20225;-42
2021/05/03 02:45:25;;;;;;;1999.90;999.90;;;13.70;92.00;;;;;;5114880;28;20198;-42
2021/05/03 02:47:52;;;;;;;1999.90;999.90;;;13.70;92.00;;;;;;5114845;28;20182;-42
2021/05/03 02:50:21;;;;;;;1999.90;999.90;;;13.70;92.20;;;;;;5114737;28;20221;-42
2021/05/03 02:52:49;;;;;;;1999.90;999.90;;;13.70;92.40;;;;;;5114384;28;20253;-42
2021/05/03 02:55:16;;;;;;;1999.90;999.90;;;13.70;92.40;;;;;;5114579;28;20203;-42
2021/05/03 02:57:45;;;;;;;1999.90;999.90;;;13.70;92.30;;;;;;5114721;28;20166;-43
2021/05/03 03:00:26;;;;;;;1999.90;999.90;;;13.70;92.30;;;;;;5114664;28;20224;-43
2021/05/03 03:02:53;;;;;;;1999.90;999.90;;;13.60;92.20;;;;;;5114287;28;20194;-43
2021/05/03 03:05:20;;;;;;;1999.90;999.90;;;13.60;92.20;;;;;;5114309;28;20174;-44
2021/05/03 03:07:52;;;;;;;1999.90;999.90;;;13.60;92.30;;;;;;5114377;28;20174;-42
2021/05/03 03:10:22;;;;;;;1999.90;999.90;;;13.60;92.60;;;;;;5114433;28;20160;-42
2021/05/03 03:12:49;;;;;;;1999.90;999.90;;;13.70;92.40;;;;;;5114330;28;20186;-42
2021/05/03 03:15:19;;;;;;;1999.90;999.90;;;13.60;92.60;;;;;;5114067;28;20210;-43
2021/05/03 03:17:50;;;;;;;1999.90;999.90;;;13.50;92.70;;;;;;5114220;28;20175;-42
2021/05/03 03:20:18;;;;;;;1999.90;999.90;;;13.50;92.60;;;;;;5114147;28;20167;-43
2021/05/03 03:22:45;;;;;;;1999.90;999.90;;;13.50;93.10;;;;;;5114287;28;20159;-42
2021/05/03 03:25:12;;;;;;;1999.90;999.90;;;13.50;93.00;;;;;;5114089;28;20533;-42
2021/05/03 03:27:39;;;;;;;1999.90;999.90;;;13.40;93.30;;;;;;5113902;28;20254;-43
2021/05/03 03:30:11;;;;;;;1999.90;999.90;;;13.40;92.80;;;;;;5113987;28;20171;-43
2021/05/03 03:32:43;;;;;;;1999.90;999.90;;;13.40;92.80;;;;;;5113993;28;20268;-42
2021/05/03 03:35:12;;;;;;;1999.90;999.90;;;13.30;92.70;;;;;;5113753;28;20259;-42
2021/05/03 03:37:39;;;;;;;1999.90;999.90;;;13.40;93.20;;;;;;5113812;28;20167;-42
2021/05/03 03:40:07;;;;;;;1999.90;999.90;;;13.30;93.50;;;;;;5113771;28;20179;-43
2021/05/03 03:42:34;;;;;;;1999.90;999.90;;;13.30;93.50;;;;;;5113808;28;20168;-42
2021/05/03 03:45:01;;;;;;;1999.90;999.90;;;13.20;93.70;;;;;;5113811;28;20206;-42
2021/05/03 03:47:28;;;;;;;1999.90;999.90;;;13.30;94.00;;;;;;5113706;28;20194;-42
2021/05/03 03:49:55;;;;;;;1999.90;999.90;;;13.30;94.20;;;;;;5113659;28;20748;-42
2021/05/03 03:52:23;;;;;;;1999.90;999.90;;;13.30;94.30;;;;;;5113362;28;20225;-46
2021/05/03 03:54:51;;;;;;;1999.90;999.90;;;13.20;94.80;;;;;;5113469;28;20680;-43
2021/05/03 03:57:18;;;;;;;1999.90;999.90;;;13.30;94.30;;;;;;5113399;28;20163;-43
2021/05/03 03:59:48;;;;;;;1999.90;999.90;;;13.30;94.10;;;;;;5113285;28;20266;-42
2021/05/03 04:02:15;;;;;;;1999.90;999.90;;;13.30;94.00;;;;;;5113253;28;20170;-42
2021/05/03 04:04:47;;;;;;;1999.90;999.90;;;13.20;93.70;;;;;;5113240;28;20596;-42
2021/05/03 04:07:51;;;;;;;1999.90;999.90;;;13.20;93.70;;;;;;5113458;28;20264;-43
2021/05/03 04:21:25;;;;;;;1999.90;999.90;;;13.00;94.30;;;;;;5050390;28;20165;-45
2021/05/03 04:26:26;;;;;;;1999.90;999.90;;;13.00;94.20;;;;;;5113128;28;20234;-42
2021/05/03 04:28:54;;;;;;;1999.90;999.90;;;13.00;94.10;;;;;;5113017;28;20641;-42
2021/05/03 04:31:23;;;;;;;1999.90;999.90;;;13.10;94.00;;;;;;5113006;28;20167;-43
2021/05/03 04:33:50;;;;;;;1999.90;999.90;;;13.10;94.20;;;;;;5113035;28;20750;-43
2021/05/03 04:36:18;;;;;;;1999.90;999.90;;;13.00;94.30;;;;;;5112991;28;20211;-43
2021/05/03 04:38:45;;;;;;;1999.90;999.90;;;13.00;94.50;;;;;;5112968;28;20625;-42
2021/05/03 04:41:12;;;;;;;1999.90;999.90;;;12.90;95.00;;;;;;5112916;28;20172;-43
2021/05/03 04:43:39;;;;;;;1999.90;999.90;;;12.90;95.20;;;;;;5112774;28;20182;-43
2021/05/03 04:46:06;;;;;;;1999.90;999.90;;;12.80;95.40;;;;;;5112701;28;20182;-42
2021/05/03 04:48:33;;;;;;;1999.90;999.90;;;12.80;95.30;;;;;;5112791;28;20173;-42
2021/05/03 04:51:00;;;;;;;1999.90;999.90;;;12.80;95.30;;;;;;5112838;28;20224;-42
2021/05/03 04:53:27;;;;;;;1999.90;999.90;;;12.80;95.50;;;;;;5112479;28;20225;-43
2021/05/03 04:55:54;;;;;;;1999.90;999.90;;;12.80;95.90;;;;;;5112733;28;20677;-42
2021/05/03 04:58:21;;;;;;;1999.90;999.90;;;12.80;95.90;;;;;;5112887;28;20163;-42
2021/05/03 05:00:48;;;;;;;1999.90;999.90;;;12.80;95.70;;;;;;5094492;28;20175;-43
2021/05/03 05:03:15;;;;;;;1999.90;999.90;;;12.80;95.70;;;;;;5112707;28;20178;-42
2021/05/03 05:05:44;;;;;;;1999.90;999.90;;;12.70;95.50;;;;;;5112457;28;20542;-43
2021/05/03 05:08:11;;;;;;;1999.90;999.90;;;12.80;95.30;;;;;;5112577;28;20657;-42
2021/05/03 05:10:38;;;;;;;1999.90;999.90;;;12.80;95.30;;;;;;5112758;28;20177;-42
2021/05/03 05:13:05;;;;;;;1999.90;999.90;;;12.80;95.40;;;;;;5112653;28;20212;-42
2021/05/03 05:15:31;;;;;;;1999.90;999.90;;;12.80;95.30;;;;;;5112539;28;20207;-42
2021/05/03 05:17:59;;;;;;;1999.90;999.90;;;12.80;95.30;;;;;;5112652;28;20549;-42
2021/05/03 05:20:26;;;;;;;1999.90;999.90;;;12.80;95.50;;;;;;5112752;28;20174;-42
2021/05/03 05:22:53;;;;;;;1999.90;999.90;;;12.80;95.50;;;;;;5112639;28;20304;-42
2021/05/03 05:25:20;;;;;;;1999.90;999.90;;;12.80;95.50;;;;;;5112477;28;20197;-43
2021/05/03 05:27:47;;;;;;;1999.90;999.90;;;12.80;95.70;;;;;;5112391;28;20204;-42
2021/05/03 05:30:14;;;;;;;1999.90;999.90;;;12.80;95.90;;;;;;5114363;28;20174;-42
2021/05/03 05:32:41;;;;;;;1999.90;999.90;;;12.70;96.30;;;;;;5116060;28;20636;-43
2021/05/03 05:35:09;;;;;;;1999.90;999.90;;;12.70;96.40;;;;;;5115948;28;20272;-42
2021/05/03 05:37:36;;;;;;;1999.90;999.90;;;12.60;96.70;;;;;;5115747;28;20175;-42
2021/05/03 05:40:05;;;;;;;1999.90;999.90;;;12.70;96.70;;;;;;5115714;28;20167;-42
2021/05/03 05:42:32;;;;;;;1999.90;999.90;;;12.80;96.50;;;;;;5115520;28;20163;-43
2021/05/03 05:44:59;;;;;;;1999.90;999.90;;;12.80;96.40;;;;;;5115745;28;20220;-43
2021/05/03 05:47:26;;;;;;;1999.90;999.90;;;12.80;96.10;;;;;;5115727;28;20186;-43
2021/05/03 05:49:52;;;;;;;1999.90;999.90;;;12.80;96.40;;;;;;5115599;28;20178;-43
2021/05/03 05:52:19;;;;;;;1999.90;999.90;;;13.00;96.20;;;;;;5115164;28;20724;-42
2021/05/03 05:54:46;;;;;;;1999.90;999.90;;;13.00;95.90;;;;;;5115447;28;20209;-43
2021/05/03 05:57:13;;;;;;;1999.90;999.90;;;13.10;95.40;;;;;;5115487;28;20647;-43
2021/05/03 05:59:40;;;;;;;1999.90;999.90;;;13.10;95.40;;;;;;5115458;28;20220;-43
2021/05/03 06:02:07;;;;;;;1999.90;999.90;;;13.20;94.90;;;;;;5115290;28;20573;-45
2021/05/03 06:04:35;;;;;;;1999.90;999.90;;;13.30;94.80;;;;;;5115289;28;20163;-45
2021/05/03 06:07:02;;;;;;;1999.90;999.90;;;13.70;93.60;;;;;;5115351;28;20164;-46
2021/05/03 06:09:29;;;;;;;1999.90;999.90;;;13.90;93.20;;;;;;5115352;28;20529;-46
2021/05/03 06:11:56;;;;;;;1999.90;999.90;;;14.20;92.70;;;;;;5115263;28;20170;-47
2021/05/03 06:14:23;;;;;;;1999.90;999.90;;;14.40;91.90;;;;;;5115126;28;20661;-52
2021/05/03 06:16:49;;;;;;;1999.90;999.90;;;14.60;91.10;;;;;;5115211;28;20167;-43
2021/05/03 06:19:16;;;;;;;1999.90;999.90;;;14.80;90.90;;;;;;5114931;28;20175;-46
2021/05/03 06:21:43;;;;;;;1999.90;999.90;;;15.00;90.30;;;;;;5114093;28;20159;-49
2021/05/03 06:24:10;;;;;;;1999.90;999.90;;;15.10;90.10;;;;;;5115030;28;20167;-45
2021/05/03 06:26:37;;;;;;;1999.90;999.90;;;15.20;89.90;;;;;;5115001;28;20647;-47
2021/05/03 06:29:04;;;;;;;1999.90;999.90;;;15.30;88.50;;;;;;5114982;28;20208;-44
2021/05/03 06:31:32;;;;;;;1999.90;999.90;;;15.40;87.50;;;;;;5114837;28;20254;-44
2021/05/03 06:33:59;;;;;;;1999.90;999.90;;;15.50;87.80;;;;;;5114604;28;20248;-43
2021/05/03 06:36:26;;;;;;;1999.90;999.90;;;15.50;88.10;;;;;;5114467;28;20159;-43
2021/05/03 06:38:53;;;;;;;1999.90;999.90;;;15.40;88.30;;;;;;5114474;28;20194;-43
2021/05/03 06:41:19;;;;;;;1999.90;999.90;;;15.30;88.80;;;;;;5114060;28;20685;-51
2021/05/03 06:43:46;;;;;;;1999.90;999.90;;;15.40;89.20;;;;;;5114540;28;20657;-50
2021/05/03 06:46:13;;;;;;;1999.90;999.90;;;15.70;89.00;;;;;;5114374;28;20174;-50
2021/05/03 06:48:40;;;;;;;1999.90;999.90;;;15.80;87.20;;;;;;5114311;28;20195;-51
2021/05/03 06:51:07;;;;;;;1999.90;999.90;;;16.10;86.30;;;;;;5114453;28;20179;-48
2021/05/03 06:53:34;;;;;;;1999.90;999.90;;;16.30;84.60;;;;;;5113957;28;20293;-47
2021/05/03 06:56:01;;;;;;;1999.90;999.90;;;16.50;82.20;;;;;;5114340;28;20625;-58
2021/05/03 06:58:28;;;;;;;1999.90;999.90;;;16.70;82.50;;;;;;5114063;28;20576;-58
2021/05/03 07:00:55;;;;;;;1999.90;999.90;;;16.90;82.30;;;;;;5114023;28;20182;-50
2021/05/03 07:03:22;;;;;;;1999.90;999.90;;;17.00;80.20;;;;;;5113998;28;20166;-51
2021/05/03 07:05:49;;;;;;;1999.90;999.90;;;17.10;81.80;;;;;;5114037;28;20257;-48
2021/05/03 07:08:18;;;;;;;1999.90;999.90;;;17.40;86.10;;;;;;5113874;28;20171;-44
2021/05/03 07:10:46;;;;;;;1999.90;999.90;;;17.70;81.80;;;;;;5113823;28;20171;-44
2021/05/03 07:13:13;;;;;;;1999.90;999.90;;;17.70;77.80;;;;;;5113639;28;20227;-47
2021/05/03 07:15:41;;;;;;;1999.90;999.90;;;17.70;77.40;;;;;;5113446;28;20297;-47
2021/05/03 07:18:08;;;;;;;1999.90;999.90;;;17.80;78.90;;;;;;5113597;28;20601;-51
2021/05/03 07:20:35;;;;;;;1999.90;999.90;;;18.00;78.80;;;;;;5113486;28;20259;-49
2021/05/03 07:23:07;;;;;;;1999.90;999.90;;;18.20;76.00;;;;;;5113547;28;20167;-52
2021/05/03 07:25:34;;;;;;;1999.90;999.90;;;18.30;75.00;;;;;;5113361;28;20152;-47
2021/05/03 07:28:01;;;;;;;1999.90;999.90;;;18.50;74.40;;;;;;5113595;28;20224;-49
2021/05/03 07:30:28;;;;;;;1999.90;999.90;;;18.60;75.00;;;;;;5113367;28;20254;-53
2021/05/03 07:32:55;;;;;;;1999.90;999.90;;;18.70;75.50;;;;;;5113399;28;20171;-50
2021/05/03 07:35:22;;;;;;;1999.90;999.90;;;18.80;74.60;;;;;;5113440;28;20199;-52
2021/05/03 07:37:49;;;;;;;1999.90;999.90;;;19.00;73.60;;;;;;5113438;28;20623;-49
2021/05/03 07:40:16;;;;;;;1999.90;999.90;;;19.20;72.10;;;;;;5113196;28;20175;-47
2021/05/03 07:42:43;;;;;;;1999.90;999.90;;;19.30;71.00;;;;;;5113263;28;20217;-43
2021/05/03 07:45:15;;;;;;;1999.90;999.90;;;19.40;71.50;;;;;;5112918;28;20163;-45
2021/05/03 07:47:43;;;;;;;1999.90;999.90;;;19.60;71.80;;;;;;5113229;28;20166;-47
2021/05/03 07:50:11;;;;;;;1999.90;999.90;;;19.80;70.30;;;;;;5113105;28;20178;-44
2021/05/03 07:52:38;;;;;;;1999.90;999.90;;;20.10;68.50;;;;;;5112292;28;20215;-46
2021/05/03 07:55:06;;;;;;;1999.90;999.90;;;20.20;66.20;;;;;;5113086;28;20195;-45
2021/05/03 07:57:33;;;;;;;1999.90;999.90;;;20.30;65.10;;;;;;5113147;28;20178;-48
2021/05/03 08:00:00;;;;;;;1999.90;999.90;;;20.50;64.20;;;;;;5113028;28;20169;-45
2021/05/03 08:02:27;;;;;;;1999.90;999.90;;;20.60;64.30;;;;;;5113037;28;20258;-45
2021/05/03 08:04:54;;;;;;;1999.90;999.90;;;20.70;63.90;;;;;;5113187;28;20167;-45
2021/05/03 08:07:21;;;;;;;1999.90;999.90;;;20.90;62.60;;;;;;5112899;28;20167;-47
2021/05/03 08:09:48;;;;;;;1999.90;999.90;;;21.30;57.70;;;;;;5112934;28;20190;-46
2021/05/03 08:12:15;;;;;;;1999.90;999.90;;;21.70;57.50;;;;;;5112737;28;20183;-45
2021/05/03 08:14:43;;;;;;;1999.90;999.90;;;21.90;54.70;;;;;;5112919;28;20222;-47
2021/05/03 08:17:13;;;;;;;1999.90;999.90;;;22.30;52.80;;;;;;5112907;28;20183;-52
2021/05/03 08:19:40;;;;;;;1999.90;999.90;;;22.50;52.20;;;;;;5112714;28;20159;-39
2021/05/03 08:22:07;;;;;;;1999.90;999.90;;;22.90;51.20;;;;;;5112751;28;20205;-38
2021/05/03 08:24:35;;;;;;;1999.90;999.90;;;23.10;47.90;;;;;;5094382;28;20649;-43
2021/05/03 08:27:05;;;;;;;1999.90;999.90;;;23.40;47.80;;;;;;5112629;28;20167;-50
2021/05/03 08:29:32;;;;;;;1999.90;999.90;;;23.70;46.30;;;;;;5112282;28;20217;-50
2021/05/03 08:31:59;;;;;;;1999.90;999.90;;;23.90;44.80;;;;;;5112476;28;20167;-49
2021/05/03 08:34:27;;;;;;;1999.90;999.90;;;24.10;43.70;;;;;;5112498;28;20199;-60
2021/05/03 08:36:56;;;;;;;1999.90;999.90;;;24.30;45.10;;;;;;5112355;28;20649;-55
2021/05/03 08:39:25;;;;;;;1999.90;999.90;;;24.50;43.20;;;;;;5109734;28;20194;-57
2021/05/03 08:41:56;;;;;;;1999.90;999.90;;;24.80;42.40;;;;;;5111708;28;20175;-56
2021/05/03 08:44:23;;;;;;;1999.90;999.90;;;25.10;42.40;;;;;;5112205;28;20250;-58
2021/05/03 08:46:50;;;;;;;1999.90;999.90;;;25.30;42.00;;;;;;5112053;28;20159;-54
2021/05/03 08:52:11;;;;;;;1999.90;999.90;;;25.50;41.70;;;;;;5112471;28;20229;-55
2021/05/03 08:54:41;;;;;;;1999.90;999.90;;;25.90;42.50;;;;;;5112371;28;20255;-57
2021/05/03 08:57:12;;;;;;;1999.90;999.90;;;26.30;41.40;;;;;;5112490;28;20248;-52
2021/05/03 08:59:40;;;;;;;1999.90;999.90;;;26.60;40.30;;;;;;5112312;28;20613;-59
2021/05/03 09:02:10;;;;;;;1999.90;999.90;;;26.70;38.70;;;;;;5112241;28;20171;-57
2021/05/03 09:04:37;;;;;;;1999.90;999.90;;;26.90;37.80;;;;;;5112413;28;20175;-55
2021/05/03 09:07:06;;;;;;;1999.90;999.90;;;27.00;36.60;;;;;;5116164;28;20250;-59
2021/05/03 09:09:57;;;;;;;1999.90;999.90;;;27.10;37.00;;;;;;5115683;28;20247;-61
2021/05/03 09:12:26;;;;;;;1999.90;999.90;;;27.20;36.00;;;;;;5115543;28;20653;-58
2021/05/03 09:15:04;;;;;;;1999.90;999.90;;;27.30;34.60;;;;;;5116136;28;20302;-59
2021/05/03 09:17:33;;;;;;;1999.90;999.90;;;27.50;33.90;;;;;;5115976;28;20157;-58
2021/05/03 09:20:14;;;;;;;1999.90;999.90;;;27.90;33.80;;;;;;5115896;28;20165;-60
2021/05/03 09:22:49;;;;;;;1999.90;999.90;;;28.10;34.30;;;;;;5115565;28;20158;-59
2021/05/03 09:25:35;;;;;;;1999.90;999.90;;;28.50;34.90;;;;;;5115695;28;20559;-50
2021/05/03 09:28:14;;;;;;;1999.90;999.90;;;28.70;34.70;;;;;;5115572;28;20170;-47
2021/05/03 09:30:48;;;;;;;1999.90;999.90;;;29.10;34.60;;;;;;5115759;28;20161;-55
2021/05/03 09:33:20;;;;;;;1999.90;999.90;;;29.40;34.20;;;;;;5115779;28;20531;-59
2021/05/03 09:35:48;;;;;;;1999.90;999.90;;;29.60;33.70;;;;;;5115358;28;20210;-58
2021/05/03 09:38:32;;;;;;;1999.90;999.90;;;29.80;32.60;;;;;;5115920;28;20668;-54
2021/05/03 09:41:25;;;;;;;1999.90;999.90;;;29.80;32.20;;;;;;5115765;28;20178;-58
2021/05/03 09:44:05;;;;;;;1999.90;999.90;;;29.90;32.90;;;;;;5115541;28;20195;-58
2021/05/03 09:46:38;;;;;;;1999.90;999.90;;;30.20;31.50;;;;;;5115551;28;20163;-55
2021/05/03 09:49:17;;;;;;;1999.90;999.90;;;30.30;31.40;;;;;;5115250;28;20191;-58
2021/05/03 09:51:45;;;;;;;1999.90;999.90;;;30.50;30.50;;;;;;5115433;28;20171;-57
2021/05/03 09:54:26;;;;;;;1999.90;999.90;;;30.90;30.70;;;;;;5115157;28;20193;-60
2021/05/03 09:57:11;;;;;;;1999.90;999.90;;;30.90;30.10;;;;;;5115229;28;20159;-57
2021/05/03 09:59:47;;;;;;;1999.90;999.90;;;31.20;29.90;;;;;;5114896;28;20429;-60
2021/05/03 10:02:18;;;;;;;1999.90;999.90;;;31.40;29.20;;;;;;5115170;28;20156;-63
2021/05/03 10:04:50;;;;;;;1999.90;999.90;;;31.60;28.70;;;;;;5114842;28;20173;-65
2021/05/03 10:07:20;;;;;;;1999.90;999.90;;;31.80;28.40;;;;;;5114764;28;20183;-61
2021/05/03 10:09:53;;;;;;;1999.90;999.90;;;31.90;28.10;;;;;;5114848;28;20179;-61
2021/05/03 10:12:21;;;;;;;1999.90;999.90;;;32.10;26.50;;;;;;5114744;28;20190;-61
2021/05/03 10:14:50;;;;;;;1999.90;999.90;;;32.30;26.70;;;;;;5113793;28;20238;-59
2021/05/03 10:17:17;;;;;;;1999.90;999.90;;;32.30;26.90;;;;;;5114699;28;20167;-63
2021/05/03 10:19:45;;;;;;;1999.90;999.90;;;32.30;26.60;;;;;;5114503;28;20254;-50
2021/05/03 10:22:20;;;;;;;1999.90;999.90;;;32.20;24.90;;;;;;5114598;28;20163;-45
2021/05/03 10:25:07;;;;;;;1999.90;999.90;;;32.20;24.20;;;;;;5114320;28;20224;-52
2021/05/03 10:27:39;;;;;;;1999.90;999.90;;;32.20;24.60;;;;;;5114358;28;20583;-41
2021/05/03 10:30:16;;;;;;;1999.90;999.90;;;32.40;24.70;;;;;;5114388;28;20175;-44
2021/05/03 10:33:04;;;;;;;1999.90;999.90;;;32.40;24.50;;;;;;5114336;28;20190;-51
2021/05/03 10:35:42;;;;;;;1999.90;999.90;;;32.40;24.60;;;;;;5096204;28;20215;-51
2021/05/03 10:38:27;;;;;;;1999.90;999.90;;;32.50;24.90;;;;;;5114309;28;20159;-55
2021/05/03 10:40:56;;;;;;;1999.90;999.90;;;32.60;24.80;;;;;;5114032;28;20166;-52
2021/05/03 10:43:27;;;;;;;1999.90;999.90;;;32.50;24.30;;;;;;5114213;28;20243;-50
2021/05/03 10:48:42;;;;;;;1999.90;999.90;;;32.90;25.30;;;;;;5113775;28;20255;-51
2021/05/03 10:51:36;;;;;;;1999.90;999.90;;;32.90;24.50;;;;;;5114030;28;20167;-42
2021/05/03 10:54:20;;;;;;;1999.90;999.90;;;33.00;24.80;;;;;;5103168;28;20230;-53
2021/05/03 10:56:47;;;;;;;1999.90;999.90;;;33.00;24.90;;;;;;5114108;28;20220;-49
2021/05/03 10:59:16;;;;;;;1999.90;999.90;;;33.10;25.20;;;;;;5114348;28;20163;-54
2021/05/03 11:01:54;;;;;;;1999.90;999.90;;;33.20;24.60;;;;;;5114350;28;20167;-46
2021/05/03 11:04:29;;;;;;;1999.90;999.90;;;33.10;25.30;;;;;;5114172;28;20304;-39
2021/05/03 11:06:58;;;;;;;1999.90;999.90;;;33.00;25.30;;;;;;5113940;28;20288;-42
2021/05/03 11:09:29;;;;;;;1999.90;999.90;;;32.90;25.20;;;;;;5095582;28;20332;-57
2021/05/03 11:11:57;;;;;;;1999.90;999.90;;;32.80;25.40;;;;;;5114678;28;20168;-58
2021/05/03 11:14:27;;;;;;;1999.90;999.90;;;32.90;25.40;;;;;;5113516;28;20294;-58
2021/05/03 11:17:04;;;;;;;1999.90;999.90;;;33.00;24.80;;;;;;5113627;28;20171;-54
2021/05/03 11:22:20;;;;;;;1999.90;999.90;;;33.20;24.90;;;;;;5113594;28;20233;-56
2021/05/03 11:25:05;;;;;;;1999.90;999.90;;;33.30;24.40;;;;;;5113622;28;20182;-48
2021/05/03 11:30:45;;;;;;;1999.90;999.90;;;33.30;24.50;;;;;;5113385;28;20177;-41
2021/05/03 11:33:16;;;;;;;1999.90;999.90;;;33.40;24.50;;;;;;5113288;28;20191;-59
2021/05/03 11:36:01;;;;;;;1999.90;999.90;;;33.50;24.30;;;;;;5113607;28;20190;-57
2021/05/03 11:38:37;;;;;;;1999.90;999.90;;;33.60;24.50;;;;;;5113239;28;20578;-52
2021/05/03 11:46:25;;;;;;;1999.90;999.90;;;33.10;23.60;;;;;;5113001;28;20205;-40
2021/05/03 11:48:53;;;;;;;1999.90;999.90;;;33.40;24.10;;;;;;5112869;28;20562;-52
2021/05/03 11:51:20;;;;;;;1999.90;999.90;;;33.50;23.40;;;;;;5112918;28;20169;-41
2021/05/03 11:53:47;;;;;;;1999.90;999.90;;;33.60;22.90;;;;;;5112785;28;20253;-40
2021/05/03 11:56:18;;;;;;;1999.90;999.90;;;33.70;23.10;;;;;;5112718;28;20220;-41
2021/05/03 11:58:46;;;;;;;1999.90;999.90;;;33.90;22.60;;;;;;5112749;28;20618;-40
2021/05/03 12:01:17;;;;;;;1999.90;999.90;;;33.80;22.60;;;;;;5112925;28;20173;-40
2021/05/03 12:03:49;;;;;;;1999.90;999.90;;;33.90;22.30;;;;;;5113266;28;20175;-41
2021/05/03 12:06:36;;;;;;;1999.90;999.90;;;33.90;22.70;;;;;;5113003;28;20163;-40
2021/05/03 12:09:12;;;;;;;1999.90;999.90;;;34.00;21.90;;;;;;5113135;28;20220;-41
2021/05/03 12:11:52;;;;;;;1999.90;999.90;;;34.20;22.30;;;;;;5113267;28;20150;-47
2021/05/03 12:14:19;;;;;;;1999.90;999.90;;;34.40;22.30;;;;;;5112904;28;20210;-46
2021/05/03 12:16:46;;;;;;;1999.90;999.90;;;34.40;21.90;;;;;;5113057;28;20163;-42
2021/05/03 12:19:21;;;;;;;1999.90;999.90;;;34.30;22.30;;;;;;5113206;28;20524;-41
2021/05/03 12:22:00;;;;;;;1999.90;999.90;;;34.30;22.30;;;;;;5112891;28;20231;-46
2021/05/03 12:24:34;;;;;;;1999.90;999.90;;;34.20;22.60;;;;;;5113046;28;20166;-41
2021/05/03 12:27:01;;;;;;;1999.90;999.90;;;34.20;22.50;;;;;;5112719;28;20289;-40
2021/05/03 12:29:29;;;;;;;1999.90;999.90;;;34.20;23.20;;;;;;5112854;28;20175;-41
2021/05/03 12:31:57;;;;;;;1999.90;999.90;;;34.10;22.50;;;;;;5112892;28;20586;-41
2021/05/03 12:34:25;;;;;;;1999.90;999.90;;;33.80;22.70;;;;;;5112675;28;20634;-40
2021/05/03 12:37:05;;;;;;;1999.90;999.90;;;33.50;22.80;;;;;;5112723;28;20167;-53
2021/05/03 12:39:53;;;;;;;1999.90;999.90;;;33.20;23.30;;;;;;5115797;28;20624;-44